createdAt,value
2023-03-30T00:01:19.925Z,96843.00
2023-03-30T00:03:49.041Z,96856.00
2023-03-30T00:06:22.562Z,96841.00
2023-03-30T00:08:57.629Z,96853.00
2023-03-30T00:11:26.451Z,96847.00
2023-03-30T00:13:54.362Z,96849.00
2023-03-30T00:16:22.120Z,96832.00
2023-03-30T00:18:50.004Z,96838.00
2023-03-30T00:21:20.485Z,96840.00
2023-03-30T00:23:47.751Z,96829.00
2023-03-30T00:26:15.860Z,96828.00
2023-03-30T00:28:42.711Z,96838.00
2023-03-30T00:31:11.262Z,96841.00
2023-03-30T00:33:45.779Z,96837.00
2023-03-30T00:36:14.610Z,96846.00
2023-03-30T00:38:41.662Z,96835.00
2023-03-30T00:41:09.195Z,96832.00
2023-03-30T00:43:54.228Z,96821.00
2023-03-30T00:46:22.722Z,96819.00
2023-03-30T00:48:50.476Z,96821.00
2023-03-30T00:51:19.333Z,96809.00
2023-03-30T00:53:54.813Z,96801.00
2023-03-30T00:56:28.963Z,96801.00
2023-03-30T00:58:56.075Z,96801.00
2023-03-30T01:01:28.566Z,96800.00
2023-03-30T01:04:03.683Z,96811.00
2023-03-30T01:06:32.478Z,96806.00
2023-03-30T01:08:59.742Z,96803.00
2023-03-30T01:11:27.343Z,96793.00
2023-03-30T01:14:03.066Z,96773.00
2023-03-30T01:16:36.109Z,96790.00
2023-03-30T01:19:39.849Z,96775.00
2023-03-30T01:22:59.051Z,96778.00
2023-03-30T01:26:09.671Z,96762.00
2023-03-30T01:28:58.277Z,96754.00
2023-03-30T01:32:10.122Z,96765.00
2023-03-30T01:35:28.672Z,96733.00
2023-03-30T01:38:26.019Z,96747.00
2023-03-30T01:41:38.447Z,96750.00
2023-03-30T01:44:48.040Z,96744.00
2023-03-30T01:47:42.385Z,96741.00
2023-03-30T01:50:37.076Z,96744.00
2023-03-30T01:53:22.320Z,96753.00
2023-03-30T01:56:15.403Z,96755.00
2023-03-30T01:58:56.772Z,96766.00
2023-03-30T02:01:26.045Z,96755.00
2023-03-30T02:03:59.102Z,96761.00
2023-03-30T02:06:45.879Z,96751.00
2023-03-30T02:09:23.711Z,96755.00
2023-03-30T02:11:53.990Z,96735.00
2023-03-30T02:14:27.580Z,96743.00
2023-03-30T02:17:23.415Z,96756.00
2023-03-30T02:19:52.326Z,96747.00
2023-03-30T02:22:20.276Z,96758.00
2023-03-30T02:24:52.755Z,96767.00
2023-03-30T02:27:21.926Z,96755.00
2023-03-30T02:29:49.520Z,96773.00
2023-03-30T02:32:25.428Z,96775.00
2023-03-30T02:35:22.786Z,96754.00
2023-03-30T02:38:30.042Z,96755.00
2023-03-30T02:41:41.450Z,96724.00
2023-03-30T02:44:42.820Z,96729.00
2023-03-30T02:48:06.985Z,96714.00
2023-03-30T02:51:31.985Z,96712.00
2023-03-30T02:55:16.915Z,96704.00
2023-03-30T02:58:25.609Z,96694.00
2023-03-30T03:01:04.798Z,96689.00
2023-03-30T03:03:49.174Z,96701.00
2023-03-30T03:06:20.300Z,96668.00
2023-03-30T03:08:54.649Z,96654.00
2023-03-30T03:11:25.787Z,96649.00
2023-03-30T03:13:53.356Z,96659.00
2023-03-30T03:16:20.444Z,96645.00
2023-03-30T03:19:08.140Z,96661.00
2023-03-30T03:21:36.549Z,96654.00
2023-03-30T03:24:05.305Z,96642.00
2023-03-30T03:26:50.983Z,96631.00
2023-03-30T03:29:18.952Z,96638.00
2023-03-30T03:31:45.958Z,96616.00
2023-03-30T03:34:12.914Z,96639.00
2023-03-30T03:36:55.496Z,96632.00
2023-03-30T03:39:25.848Z,96643.00
2023-03-30T03:41:56.917Z,96640.00
2023-03-30T03:44:24.020Z,96632.00
2023-03-30T03:46:51.876Z,96630.00
2023-03-30T03:49:18.872Z,96616.00
2023-03-30T03:51:45.659Z,96615.00
2023-03-30T03:54:12.471Z,96613.00
2023-03-30T03:56:42.384Z,96607.00
2023-03-30T03:59:09.528Z,96614.00
2023-03-30T04:01:36.404Z,96612.00
2023-03-30T04:04:03.259Z,96610.00
2023-03-30T04:06:30.300Z,96592.00
2023-03-30T04:08:57.203Z,96600.00
2023-03-30T04:11:46.643Z,96598.00
2023-03-30T04:14:24.751Z,96594.00
2023-03-30T04:17:11.662Z,96604.00
2023-03-30T04:19:46.215Z,96602.00
2023-03-30T04:22:20.090Z,96597.00
2023-03-30T04:25:00.784Z,96576.00
2023-03-30T04:28:01.504Z,96575.00
2023-03-30T04:30:47.042Z,96575.00
2023-03-30T04:33:34.860Z,96576.00
2023-03-30T04:36:20.956Z,96557.00
2023-03-30T04:39:06.477Z,96562.00
2023-03-30T04:41:52.260Z,96570.00
2023-03-30T04:44:36.144Z,96584.00
2023-03-30T04:47:35.580Z,96574.00
2023-03-30T04:50:20.921Z,96573.00
2023-03-30T04:53:20.162Z,96583.00
2023-03-30T04:56:08.125Z,96592.00
2023-03-30T04:58:59.438Z,96568.00
2023-03-30T05:01:41.124Z,96593.00
2023-03-30T05:04:28.371Z,96581.00
2023-03-30T05:07:15.137Z,96596.00
2023-03-30T05:09:48.803Z,96586.00
2023-03-30T05:12:34.538Z,96583.00
2023-03-30T05:15:27.482Z,96597.00
2023-03-30T05:18:16.323Z,96583.00
2023-03-30T05:21:15.739Z,96579.00
2023-03-30T05:24:01.476Z,96581.00
2023-03-30T05:26:54.327Z,96574.00
2023-03-30T05:29:36.011Z,96571.00
2023-03-30T05:32:22.341Z,96577.00
2023-03-30T05:35:08.174Z,96596.00
2023-03-30T05:37:50.324Z,96596.00
2023-03-30T05:40:28.740Z,96598.00
2023-03-30T05:43:13.989Z,96608.00
2023-03-30T05:46:08.420Z,96610.00
2023-03-30T05:48:58.304Z,96604.00
2023-03-30T05:51:31.083Z,96597.00
2023-03-30T05:54:07.148Z,96591.00
2023-03-30T05:56:52.342Z,96611.00
2023-03-30T05:59:31.056Z,96619.00
2023-03-30T06:02:04.129Z,96619.00
2023-03-30T06:04:31.575Z,96610.00
2023-03-30T06:06:59.900Z,96630.00
2023-03-30T06:09:27.122Z,96618.00
2023-03-30T06:11:56.383Z,96623.00
2023-03-30T06:14:25.008Z,96625.00
2023-03-30T06:17:13.978Z,96623.00
2023-03-30T06:19:43.035Z,96620.00
2023-03-30T06:22:10.326Z,96623.00
2023-03-30T06:24:51.604Z,96626.00
2023-03-30T06:27:20.064Z,96617.00
2023-03-30T06:29:46.938Z,96622.00
2023-03-30T06:32:13.827Z,96630.00
2023-03-30T06:34:46.691Z,96613.00
2023-03-30T06:37:15.413Z,96623.00
2023-03-30T06:39:42.431Z,96617.00
2023-03-30T06:42:09.372Z,96603.00
2023-03-30T06:44:54.526Z,96601.00
2023-03-30T06:47:22.354Z,96623.00
2023-03-30T06:49:49.751Z,96621.00
2023-03-30T06:52:37.237Z,96622.00
2023-03-30T06:55:06.032Z,96634.00
2023-03-30T06:57:33.143Z,96625.00
2023-03-30T07:00:09.273Z,96625.00
2023-03-30T07:02:40.338Z,96629.00
2023-03-30T07:05:24.779Z,96639.00
2023-03-30T07:08:19.457Z,96646.00
2023-03-30T07:10:51.450Z,96648.00
2023-03-30T07:13:19.218Z,96638.00
2023-03-30T07:15:48.522Z,96642.00
2023-03-30T07:18:15.713Z,96655.00
2023-03-30T07:20:45.279Z,96629.00
2023-03-30T07:23:16.556Z,96628.00
2023-03-30T07:25:46.951Z,96621.00
2023-03-30T07:28:17.771Z,96621.00
2023-03-30T07:30:46.394Z,96616.00
2023-03-30T07:33:14.746Z,96623.00
2023-03-30T07:35:47.215Z,96631.00
2023-03-30T07:38:19.762Z,96637.00
2023-03-30T07:40:51.556Z,96639.00
2023-03-30T07:43:19.990Z,96630.00
2023-03-30T07:45:46.928Z,96615.00
2023-03-30T07:48:20.669Z,96612.00
2023-03-30T07:50:47.724Z,96608.00
2023-03-30T07:53:14.594Z,96625.00
2023-03-30T07:55:44.001Z,96607.00
2023-03-30T07:58:28.965Z,96621.00
2023-03-30T08:00:56.117Z,96604.00
2023-03-30T08:03:48.136Z,96610.00
2023-03-30T08:06:15.526Z,96602.00
2023-03-30T08:08:45.284Z,96602.00
2023-03-30T08:11:12.731Z,96615.00
2023-03-30T08:13:41.260Z,96609.00
2023-03-30T08:16:09.661Z,96602.00
2023-03-30T08:18:37.111Z,96614.00
2023-03-30T08:21:05.132Z,96617.00
2023-03-30T08:23:32.376Z,96612.00
2023-03-30T08:26:02.806Z,96620.00
2023-03-30T08:28:29.999Z,96626.00
2023-03-30T08:31:07.474Z,96616.00
2023-03-30T08:33:34.990Z,96617.00
2023-03-30T08:36:02.047Z,96622.00
2023-03-30T08:38:29.281Z,96636.00
2023-03-30T08:40:56.288Z,96625.00
2023-03-30T08:44:01.458Z,96624.00
2023-03-30T08:46:30.673Z,96626.00
2023-03-30T08:49:02.809Z,96616.00
2023-03-30T08:51:35.799Z,96629.00
2023-03-30T08:54:11.772Z,96630.00
2023-03-30T08:57:06.317Z,96621.00
2023-03-30T09:00:19.833Z,96626.00
2023-03-30T09:02:53.090Z,96639.00
2023-03-30T09:05:37.374Z,96640.00
2023-03-30T09:08:20.287Z,96632.00
2023-03-30T09:11:11.653Z,96628.00
2023-03-30T09:13:45.231Z,96616.00
2023-03-30T09:16:35.741Z,96627.00
2023-03-30T09:19:09.168Z,96618.00
2023-03-30T09:21:37.024Z,96625.00
2023-03-30T09:24:15.977Z,96639.00
2023-03-30T09:27:02.151Z,96648.00
2023-03-30T09:29:36.220Z,96635.00
2023-03-30T09:32:33.146Z,96651.00
2023-03-30T09:35:16.572Z,96653.00
2023-03-30T09:37:43.376Z,96644.00
2023-03-30T09:41:24.525Z,96647.00
2023-03-30T09:43:53.103Z,96635.00
2023-03-30T09:46:20.344Z,96640.00
2023-03-30T09:48:49.783Z,96654.00
2023-03-30T09:51:31.989Z,96655.00
2023-03-30T09:54:03.214Z,96649.00
2023-03-30T09:56:47.672Z,96659.00
2023-03-30T09:59:36.805Z,96658.00
2023-03-30T10:02:20.630Z,96669.00
2023-03-30T10:04:57.047Z,96656.00
2023-03-30T10:07:37.777Z,96640.00
2023-03-30T10:10:27.611Z,96691.00
2023-03-30T10:13:02.267Z,96663.00
2023-03-30T10:15:31.561Z,96693.00
2023-03-30T10:18:23.977Z,96702.00
2023-03-30T10:21:15.171Z,96688.00
2023-03-30T10:23:45.102Z,96716.00
2023-03-30T10:26:20.437Z,96747.00
2023-03-30T10:29:07.454Z,96756.00
2023-03-30T10:31:37.833Z,96795.00
2023-03-30T10:34:16.134Z,96805.00
2023-03-30T10:36:48.659Z,96806.00
2023-03-30T10:39:30.028Z,96813.00
2023-03-30T10:42:01.148Z,96801.00
2023-03-30T10:45:01.151Z,96816.00
2023-03-30T10:48:07.779Z,96823.00
2023-03-30T10:51:03.768Z,96824.00
2023-03-30T10:53:52.688Z,96808.00
2023-03-30T10:56:37.891Z,96768.00
2023-03-30T10:59:23.280Z,96778.00
2023-03-30T11:02:14.349Z,96751.00
2023-03-30T11:05:03.648Z,96772.00
2023-03-30T11:07:41.272Z,96785.00
2023-03-30T11:10:20.832Z,96795.00
2023-03-30T11:13:06.199Z,96788.00
2023-03-30T11:16:12.426Z,96796.00
2023-03-30T11:19:05.401Z,96792.00
2023-03-30T11:22:04.743Z,96790.00
2023-03-30T11:24:34.202Z,96792.00
2023-03-30T11:27:17.277Z,96787.00
2023-03-30T11:29:53.911Z,96784.00
2023-03-30T11:32:30.008Z,96791.00
2023-03-30T11:35:18.456Z,96786.00
2023-03-30T11:38:04.898Z,96787.00
2023-03-30T11:41:05.783Z,96782.00
2023-03-30T11:43:33.489Z,96796.00
2023-03-30T11:46:27.626Z,96791.00
2023-03-30T11:49:24.969Z,96793.00
2023-03-30T11:52:07.001Z,96803.00
2023-03-30T11:55:16.871Z,96786.00
2023-03-30T11:58:17.846Z,96813.00
2023-03-30T12:01:39.592Z,96797.00
2023-03-30T12:04:19.982Z,96801.00
2023-03-30T12:06:59.824Z,96786.00
2023-03-30T12:09:35.788Z,96807.00
2023-03-30T12:12:07.384Z,96804.00
2023-03-30T12:15:23.302Z,96807.00
2023-03-30T12:18:00.474Z,96793.00
2023-03-30T12:20:56.192Z,96801.00
2023-03-30T12:23:35.877Z,96796.00
2023-03-30T12:26:28.470Z,96795.00
2023-03-30T12:31:59.018Z,96789.00
2023-03-30T12:34:37.369Z,96791.00
2023-03-30T12:37:22.283Z,96789.00
2023-03-30T12:40:08.085Z,96774.00
2023-03-30T12:42:46.041Z,96778.00
2023-03-30T12:45:16.537Z,96782.00
2023-03-30T12:48:49.297Z,96771.00
2023-03-30T12:52:09.679Z,96762.00
2023-03-30T12:55:11.187Z,96765.00
2023-03-30T12:58:17.010Z,96767.00
2023-03-30T13:01:04.556Z,96758.00
2023-03-30T13:03:42.173Z,96766.00
2023-03-30T13:06:24.600Z,96749.00
2023-03-30T13:09:15.299Z,96763.00
2023-03-30T13:11:54.317Z,96753.00
2023-03-30T13:14:30.569Z,96759.00
2023-03-30T13:17:00.058Z,96746.00
2023-03-30T13:19:32.629Z,96750.00
2023-03-30T13:22:11.558Z,96742.00
2023-03-30T13:24:59.514Z,96747.00
2023-03-30T13:27:37.522Z,96749.00
2023-03-30T13:30:14.601Z,96755.00
2023-03-30T13:33:12.114Z,96755.00
2023-03-30T13:36:12.246Z,96755.00
2023-03-30T13:38:58.942Z,96763.00
2023-03-30T13:41:43.721Z,96752.00
2023-03-30T13:44:39.205Z,96767.00
2023-03-30T13:47:39.295Z,96760.00
2023-03-30T13:50:31.163Z,96764.00
2023-03-30T13:53:02.933Z,96765.00
2023-03-30T13:55:33.486Z,96787.00
2023-03-30T13:58:13.835Z,96780.00
2023-03-30T14:01:21.785Z,96775.00
2023-03-30T14:03:56.596Z,96763.00
2023-03-30T14:06:30.292Z,96777.00
2023-03-30T14:09:06.077Z,96785.00
2023-03-30T14:11:58.492Z,96782.00
2023-03-30T14:14:47.273Z,96790.00
2023-03-30T14:17:23.771Z,96796.00
2023-03-30T14:20:15.763Z,96811.00
2023-03-30T14:22:48.358Z,96821.00
2023-03-30T14:25:29.644Z,96837.00
2023-03-30T14:28:01.626Z,96849.00
2023-03-30T14:30:29.750Z,96831.00
2023-03-30T14:33:12.370Z,96813.00
2023-03-30T14:35:52.242Z,96799.00
2023-03-30T14:38:39.078Z,96794.00
2023-03-30T14:41:19.270Z,96798.00
2023-03-30T14:44:08.152Z,96784.00
2023-03-30T14:46:43.379Z,96783.00
2023-03-30T14:49:29.877Z,96783.00
2023-03-30T14:52:17.049Z,96776.00
2023-03-30T14:54:54.491Z,96778.00
2023-03-30T14:57:31.349Z,96754.00
2023-03-30T15:00:01.709Z,96781.00
2023-03-30T15:02:33.073Z,96772.00
2023-03-30T15:05:00.326Z,96769.00
2023-03-30T15:07:31.949Z,96756.00
2023-03-30T15:10:00.551Z,96778.00
2023-03-30T15:12:40.418Z,96759.00
2023-03-30T15:15:12.511Z,96763.00
2023-03-30T15:17:47.803Z,96775.00
2023-03-30T15:20:15.315Z,96761.00
2023-03-30T15:22:49.305Z,96755.00
2023-03-30T15:25:39.272Z,96753.00
2023-03-30T15:28:14.023Z,96753.00
2023-03-30T15:30:45.027Z,96761.00
2023-03-30T15:33:29.351Z,96765.00
2023-03-30T15:35:56.468Z,96749.00
2023-03-30T15:38:34.432Z,96744.00
2023-03-30T15:41:02.282Z,96757.00
2023-03-30T15:43:33.413Z,96747.00
2023-03-30T15:46:13.824Z,96736.00
2023-03-30T15:48:47.826Z,96752.00
2023-03-30T15:51:37.734Z,96740.00
2023-03-30T15:54:13.578Z,96732.00
2023-03-30T15:57:08.221Z,96743.00
2023-03-30T15:59:48.577Z,96741.00
2023-03-30T16:02:16.639Z,96750.00
2023-03-30T16:04:43.973Z,96756.00
2023-03-30T16:07:20.664Z,96748.00
2023-03-30T16:09:47.981Z,96751.00
2023-03-30T16:12:23.677Z,96748.00
2023-03-30T16:14:51.668Z,96733.00
2023-03-30T16:17:19.640Z,96744.00
2023-03-30T16:19:46.727Z,96728.00
2023-03-30T16:22:15.770Z,96739.00
2023-03-30T16:24:43.237Z,96721.00
2023-03-30T16:27:13.226Z,96724.00
2023-03-30T16:29:40.254Z,96718.00
2023-03-30T16:32:07.159Z,96717.00
2023-03-30T16:34:34.196Z,96720.00
2023-03-30T16:37:01.847Z,96723.00
2023-03-30T16:39:30.458Z,96734.00
2023-03-30T16:41:57.395Z,96726.00
2023-03-30T16:44:25.339Z,96721.00
2023-03-30T16:46:52.960Z,96731.00
2023-03-30T16:49:24.326Z,96730.00
2023-03-30T16:51:55.980Z,96731.00
2023-03-30T16:54:31.884Z,96747.00
2023-03-30T16:57:01.473Z,96729.00
2023-03-30T16:59:30.931Z,96753.00
2023-03-30T17:02:00.017Z,96778.00
2023-03-30T17:04:27.332Z,96770.00
2023-03-30T17:06:54.971Z,96767.00
2023-03-30T17:09:22.440Z,96756.00
2023-03-30T17:11:50.861Z,96754.00
2023-03-30T17:14:19.972Z,96769.00
2023-03-30T17:16:46.858Z,96763.00
2023-03-30T17:19:14.770Z,96762.00
2023-03-30T17:21:43.342Z,96771.00
2023-03-30T17:24:11.061Z,96773.00
2023-03-30T17:26:38.677Z,96750.00
2023-03-30T17:29:05.745Z,96763.00
2023-03-30T17:31:32.663Z,96763.00
2023-03-30T17:33:59.605Z,96763.00
2023-03-30T17:36:28.525Z,96758.00
2023-03-30T17:38:55.438Z,96761.00
2023-03-30T17:41:22.280Z,96763.00
2023-03-30T17:43:49.174Z,96755.00
2023-03-30T17:46:19.470Z,96760.00
2023-03-30T17:48:46.919Z,96773.00
2023-03-30T17:51:13.731Z,96769.00
2023-03-30T17:53:40.545Z,96776.00
2023-03-30T17:56:07.549Z,96772.00
2023-03-30T17:58:36.385Z,96781.00
2023-03-30T18:01:08.311Z,96770.00
2023-03-30T18:03:38.243Z,96771.00
2023-03-30T18:06:05.663Z,96775.00
2023-03-30T18:08:32.813Z,96772.00
2023-03-30T18:11:01.016Z,96773.00
2023-03-30T18:13:30.305Z,96779.00
2023-03-30T18:15:59.618Z,96782.00
2023-03-30T18:18:30.502Z,96800.00
2023-03-30T18:21:06.897Z,96792.00
2023-03-30T18:23:34.857Z,96786.00
2023-03-30T18:26:06.502Z,96795.00
2023-03-30T18:28:35.536Z,96795.00
2023-03-30T18:31:03.137Z,96796.00
2023-03-30T18:33:30.376Z,96793.00
2023-03-30T18:35:57.659Z,96795.00
2023-03-30T18:38:25.524Z,96794.00
2023-03-30T18:40:57.725Z,96802.00
2023-03-30T18:43:28.694Z,96796.00
2023-03-30T18:46:00.823Z,96792.00
2023-03-30T18:48:28.795Z,96804.00
2023-03-30T18:50:56.183Z,96794.00
2023-03-30T18:53:28.526Z,96801.00
2023-03-30T18:56:00.128Z,96807.00
2023-03-30T18:58:41.510Z,96802.00
2023-03-30T19:01:08.874Z,96810.00
2023-03-30T19:03:35.697Z,96805.00
2023-03-30T19:06:02.774Z,96809.00
2023-03-30T19:08:29.714Z,96813.00
2023-03-30T19:10:57.679Z,96807.00
2023-03-30T19:13:26.646Z,96807.00
2023-03-30T19:15:54.981Z,96808.00
2023-03-30T19:18:22.368Z,96798.00
2023-03-30T19:20:51.587Z,96803.00
2023-03-30T19:23:21.478Z,96807.00
2023-03-30T19:25:48.902Z,96808.00
2023-03-30T19:28:17.161Z,96803.00
2023-03-30T19:30:44.373Z,96822.00
2023-03-30T19:33:16.188Z,96812.00
2023-03-30T19:35:45.224Z,96807.00
2023-03-30T19:38:13.405Z,96798.00
2023-03-30T19:40:41.129Z,96803.00
2023-03-30T19:43:08.347Z,96798.00
2023-03-30T19:45:35.600Z,96804.00
2023-03-30T19:48:02.520Z,96810.00
2023-03-30T19:50:30.568Z,96803.00
2023-03-30T19:52:58.579Z,96816.00
2023-03-30T19:55:25.731Z,96800.00
2023-03-30T19:57:52.659Z,96798.00
2023-03-30T20:00:20.298Z,96801.00
2023-03-30T20:02:54.318Z,96802.00
2023-03-30T20:05:23.928Z,96811.00
2023-03-30T20:07:51.660Z,96794.00
2023-03-30T20:10:22.734Z,96794.00
2023-03-30T20:12:51.322Z,96779.00
2023-03-30T20:15:21.239Z,96799.00
2023-03-30T20:17:48.540Z,96789.00
2023-03-30T20:20:22.768Z,96782.00
2023-03-30T20:22:53.343Z,96773.00
2023-03-30T20:25:22.221Z,96787.00
2023-03-30T20:27:49.501Z,96771.00
2023-03-30T20:30:16.893Z,96777.00
2023-03-30T20:32:45.203Z,96780.00
2023-03-30T20:35:16.251Z,96763.00
2023-03-30T20:37:43.128Z,96781.00
2023-03-30T20:40:11.897Z,96764.00
2023-03-30T20:42:44.344Z,96762.00
2023-03-30T20:45:13.748Z,96769.00
2023-03-30T20:47:40.704Z,96762.00
2023-03-30T20:50:08.071Z,96769.00
2023-03-30T20:52:35.110Z,96778.00
2023-03-30T20:55:01.909Z,96763.00
2023-03-30T20:57:28.824Z,96752.00
2023-03-30T20:59:56.067Z,96760.00
2023-03-30T21:02:22.891Z,96752.00
2023-03-30T21:04:50.221Z,96772.00
2023-03-30T21:07:17.852Z,96771.00
2023-03-30T21:09:45.343Z,96774.00
2023-03-30T21:12:12.169Z,96785.00
2023-03-30T21:14:39.077Z,96776.00
2023-03-30T21:17:06.047Z,96773.00
2023-03-30T21:19:33.100Z,96761.00
2023-03-30T21:22:00.995Z,96769.00
2023-03-30T21:24:28.477Z,96754.00
2023-03-30T21:26:56.186Z,96746.00
2023-03-30T21:29:23.554Z,96740.00
2023-03-30T21:31:50.845Z,96729.00
2023-03-30T21:34:18.734Z,96728.00
2023-03-30T21:36:46.191Z,96727.00
2023-03-30T21:39:13.137Z,96734.00
2023-03-30T21:41:39.927Z,96730.00
2023-03-30T21:44:07.193Z,96720.00
2023-03-30T21:46:34.061Z,96710.00
2023-03-30T21:49:00.889Z,96703.00
2023-03-30T21:51:31.215Z,96710.00
2023-03-30T21:53:58.815Z,96701.00
2023-03-30T21:56:29.806Z,96698.00
2023-03-30T21:58:58.524Z,96690.00
2023-03-30T22:01:26.233Z,96673.00
2023-03-30T22:03:55.247Z,96686.00
2023-03-30T22:06:22.842Z,96688.00
2023-03-30T22:08:50.505Z,96682.00
2023-03-30T22:11:21.914Z,96679.00
2023-03-30T22:13:50.029Z,96676.00
2023-03-30T22:16:23.957Z,96660.00
2023-03-30T22:18:51.332Z,96668.00
2023-03-30T22:21:21.907Z,96671.00
2023-03-30T22:23:48.739Z,96666.00
2023-03-30T22:26:16.306Z,96655.00
2023-03-30T22:28:43.940Z,96659.00
2023-03-30T22:31:14.789Z,96657.00
2023-03-30T22:33:41.816Z,96646.00
2023-03-30T22:36:35.265Z,96653.00
2023-03-30T22:39:03.534Z,96653.00
2023-03-30T22:41:30.842Z,96649.00
2023-03-30T22:43:58.361Z,96651.00
2023-03-30T22:46:27.038Z,96653.00
2023-03-30T22:48:55.404Z,96644.00
2023-03-30T22:51:26.568Z,96639.00
2023-03-30T22:54:00.103Z,96645.00
2023-03-30T22:56:30.881Z,96628.00
2023-03-30T22:59:00.704Z,96631.00
2023-03-30T23:01:31.827Z,96638.00
2023-03-30T23:04:01.796Z,96635.00
2023-03-30T23:06:28.857Z,96614.00
2023-03-30T23:08:55.820Z,96622.00
2023-03-30T23:11:22.657Z,96619.00
2023-03-30T23:13:50.276Z,96619.00
2023-03-30T23:16:17.497Z,96615.00
2023-03-30T23:18:44.343Z,96608.00
2023-03-30T23:21:13.935Z,96616.00
2023-03-30T23:23:41.106Z,96598.00
2023-03-30T23:26:11.222Z,96617.00
2023-03-30T23:28:41.676Z,96609.00
2023-03-30T23:31:14.258Z,96594.00
2023-03-30T23:33:42.662Z,96597.00
2023-03-30T23:36:13.567Z,96582.00
2023-03-30T23:38:40.914Z,96586.00
2023-03-30T23:41:08.033Z,96593.00
2023-03-30T23:43:35.204Z,96584.00
2023-03-30T23:46:02.046Z,96575.00
2023-03-30T23:48:28.983Z,96575.00
2023-03-30T23:50:57.716Z,96574.00
2023-03-30T23:53:26.221Z,96567.00
2023-03-30T23:55:53.390Z,96574.00
2023-03-30T23:58:20.409Z,96570.00
